sensor_id;sensor_type;location;lat;lon;timestamp;P1;durP1;ratioP1;P2;durP2;ratioP2
12373;SDS011;6251;51.762;8.660;2023-04-29T01:04:51;22.75;;;15.60;;
12373;SDS011;6251;51.762;8.660;2023-04-29T01:15:03;23.25;;;15.50;;
12373;SDS011;6251;51.762;8.660;2023-04-29T02:47:37;59.10;;;28.30;;
12373;SDS011;6251;51.762;8.660;2023-04-29T02:57:37;60.28;;;29.02;;
12373;SDS011;6251;51.762;8.660;2023-04-29T04:09:00;42.62;;;20.90;;
12373;SDS011;6251;51.762;8.660;2023-04-29T04:19:00;44.35;;;22.73;;
12373;SDS011;6251;51.762;8.660;2023-04-29T04:29:01;48.72;;;23.45;;
12373;SDS011;6251;51.762;8.660;2023-04-29T04:39:02;53.28;;;25.08;;
12373;SDS011;6251;51.762;8.660;2023-04-29T04:49:02;45.03;;;21.77;;
12373;SDS011;6251;51.762;8.660;2023-04-29T04:59:03;45.70;;;21.95;;
12373;SDS011;6251;51.762;8.660;2023-04-29T05:09:03;41.92;;;22.52;;
12373;SDS011;6251;51.762;8.660;2023-04-29T05:19:04;44.28;;;21.83;;
12373;SDS011;6251;51.762;8.660;2023-04-29T05:29:05;46.50;;;24.33;;
12373;SDS011;6251;51.762;8.660;2023-04-29T05:39:05;46.20;;;23.65;;
12373;SDS011;6251;51.762;8.660;2023-04-29T05:49:06;49.88;;;24.48;;
12373;SDS011;6251;51.762;8.660;2023-04-29T05:59:06;54.72;;;26.00;;
12373;SDS011;6251;51.762;8.660;2023-04-29T06:09:07;63.07;;;27.27;;
12373;SDS011;6251;51.762;8.660;2023-04-29T06:19:08;70.12;;;30.08;;
12373;SDS011;6251;51.762;8.660;2023-04-29T06:29:08;57.03;;;27.33;;
12373;SDS011;6251;51.762;8.660;2023-04-29T06:39:09;67.75;;;30.08;;
12373;SDS011;6251;51.762;8.660;2023-04-29T06:49:10;61.47;;;27.73;;
12373;SDS011;6251;51.762;8.660;2023-04-29T06:59:10;67.45;;;28.75;;
12373;SDS011;6251;51.762;8.660;2023-04-29T07:09:12;62.28;;;27.17;;
12373;SDS011;6251;51.762;8.660;2023-04-29T07:19:13;57.08;;;25.77;;
12373;SDS011;6251;51.762;8.660;2023-04-29T07:29:14;62.53;;;28.27;;
12373;SDS011;6251;51.762;8.660;2023-04-29T07:39:14;56.42;;;25.60;;
12373;SDS011;6251;51.762;8.660;2023-04-29T07:49:15;55.53;;;27.70;;
12373;SDS011;6251;51.762;8.660;2023-04-29T07:59:16;52.00;;;26.37;;
12373;SDS011;6251;51.762;8.660;2023-04-29T08:09:16;57.45;;;29.30;;
12373;SDS011;6251;51.762;8.660;2023-04-29T08:19:17;52.20;;;29.33;;
12373;SDS011;6251;51.762;8.660;2023-04-29T08:29:18;57.60;;;30.75;;
12373;SDS011;6251;51.762;8.660;2023-04-29T08:39:19;60.67;;;31.37;;
12373;SDS011;6251;51.762;8.660;2023-04-29T08:49:20;59.67;;;31.02;;
12373;SDS011;6251;51.762;8.660;2023-04-29T08:59:20;58.58;;;31.95;;
12373;SDS011;6251;51.762;8.660;2023-04-29T09:09:23;50.63;;;29.65;;
12373;SDS011;6251;51.762;8.660;2023-04-29T09:19:28;45.58;;;27.45;;
12373;SDS011;6251;51.762;8.660;2023-04-29T09:29:30;37.80;;;24.85;;
12373;SDS011;6251;51.762;8.660;2023-04-29T09:39:39;31.77;;;22.95;;
12373;SDS011;6251;51.762;8.660;2023-04-29T09:49:40;29.95;;;21.45;;
12373;SDS011;6251;51.762;8.660;2023-04-29T09:59:42;26.55;;;21.12;;
12373;SDS011;6251;51.762;8.660;2023-04-29T10:09:43;24.17;;;18.77;;
12373;SDS011;6251;51.762;8.660;2023-04-29T10:19:51;26.70;;;20.08;;
12373;SDS011;6251;51.762;8.660;2023-04-29T10:30:05;26.45;;;19.50;;
12373;SDS011;6251;51.762;8.660;2023-04-29T10:40:12;22.70;;;19.52;;
12373;SDS011;6251;51.762;8.660;2023-04-29T10:50:20;19.80;;;17.10;;
12373;SDS011;6251;51.762;8.660;2023-04-29T11:00:21;17.23;;;15.38;;
12373;SDS011;6251;51.762;8.660;2023-04-29T11:10:34;13.85;;;12.52;;
12373;SDS011;6251;51.762;8.660;2023-04-29T11:31:07;12.35;;;11.05;;
12373;SDS011;6251;51.762;8.660;2023-04-29T11:41:09;14.63;;;13.05;;
12373;SDS011;6251;51.762;8.660;2023-04-29T11:51:10;13.98;;;12.48;;
12373;SDS011;6251;51.762;8.660;2023-04-29T12:01:11;17.20;;;12.63;;
12373;SDS011;6251;51.762;8.660;2023-04-29T12:11:12;13.20;;;11.90;;
12373;SDS011;6251;51.762;8.660;2023-04-29T12:21:13;13.73;;;12.13;;
12373;SDS011;6251;51.762;8.660;2023-04-29T12:31:14;14.57;;;12.13;;
12373;SDS011;6251;51.762;8.660;2023-04-29T12:41:16;13.88;;;12.45;;
12373;SDS011;6251;51.762;8.660;2023-04-29T12:51:16;13.35;;;11.93;;
12373;SDS011;6251;51.762;8.660;2023-04-29T13:01:17;15.23;;;12.02;;
12373;SDS011;6251;51.762;8.660;2023-04-29T13:11:17;12.37;;;10.85;;
12373;SDS011;6251;51.762;8.660;2023-04-29T13:21:18;14.35;;;12.85;;
12373;SDS011;6251;51.762;8.660;2023-04-29T13:31:18;13.43;;;12.02;;
12373;SDS011;6251;51.762;8.660;2023-04-29T13:41:20;10.85;;;9.73;;
12373;SDS011;6251;51.762;8.660;2023-04-29T13:51:21;12.90;;;11.02;;
12373;SDS011;6251;51.762;8.660;2023-04-29T14:01:22;10.55;;;9.55;;
12373;SDS011;6251;51.762;8.660;2023-04-29T14:11:23;11.30;;;10.05;;
12373;SDS011;6251;51.762;8.660;2023-04-29T14:21:23;10.63;;;8.03;;
12373;SDS011;6251;51.762;8.660;2023-04-29T14:31:25;8.48;;;7.57;;
12373;SDS011;6251;51.762;8.660;2023-04-29T14:41:30;7.53;;;6.82;;
12373;SDS011;6251;51.762;8.660;2023-04-29T14:51:30;9.73;;;8.02;;
12373;SDS011;6251;51.762;8.660;2023-04-29T15:01:31;10.40;;;8.00;;
12373;SDS011;6251;51.762;8.660;2023-04-29T15:11:33;10.98;;;8.95;;
12373;SDS011;6251;51.762;8.660;2023-04-29T15:21:34;9.85;;;8.10;;
12373;SDS011;6251;51.762;8.660;2023-04-29T15:31:34;10.23;;;8.07;;
12373;SDS011;6251;51.762;8.660;2023-04-29T15:41:35;9.00;;;8.10;;
12373;SDS011;6251;51.762;8.660;2023-04-29T15:51:36;7.75;;;6.95;;
12373;SDS011;6251;51.762;8.660;2023-04-29T16:01:37;8.15;;;7.25;;
12373;SDS011;6251;51.762;8.660;2023-04-29T16:11:38;8.32;;;7.07;;
12373;SDS011;6251;51.762;8.660;2023-04-29T16:21:38;8.20;;;7.40;;
12373;SDS011;6251;51.762;8.660;2023-04-29T16:31:39;8.57;;;7.50;;
12373;SDS011;6251;51.762;8.660;2023-04-29T16:41:40;7.72;;;6.90;;
12373;SDS011;6251;51.762;8.660;2023-04-29T16:51:40;7.72;;;6.80;;
12373;SDS011;6251;51.762;8.660;2023-04-29T17:01:41;7.90;;;6.23;;
12373;SDS011;6251;51.762;8.660;2023-04-29T17:11:42;6.83;;;6.20;;
12373;SDS011;6251;51.762;8.660;2023-04-29T17:21:42;6.80;;;6.12;;
12373;SDS011;6251;51.762;8.660;2023-04-29T17:31:43;8.20;;;6.65;;
12373;SDS011;6251;51.762;8.660;2023-04-29T17:41:44;6.10;;;5.57;;
12373;SDS011;6251;51.762;8.660;2023-04-29T17:51:45;5.37;;;4.80;;
12373;SDS011;6251;51.762;8.660;2023-04-29T18:01:45;5.90;;;5.40;;
12373;SDS011;6251;51.762;8.660;2023-04-29T18:11:46;5.90;;;5.40;;
12373;SDS011;6251;51.762;8.660;2023-04-29T18:21:48;8.18;;;6.25;;
12373;SDS011;6251;51.762;8.660;2023-04-29T18:31:48;7.80;;;6.25;;
12373;SDS011;6251;51.762;8.660;2023-04-29T18:41:49;7.30;;;6.07;;
12373;SDS011;6251;51.762;8.660;2023-04-29T18:51:50;6.60;;;5.90;;
12373;SDS011;6251;51.762;8.660;2023-04-29T19:01:51;6.12;;;5.53;;
12373;SDS011;6251;51.762;8.660;2023-04-29T19:11:52;5.97;;;5.47;;
12373;SDS011;6251;51.762;8.660;2023-04-29T19:21:53;6.68;;;6.07;;
12373;SDS011;6251;51.762;8.660;2023-04-29T19:31:55;6.47;;;5.85;;
12373;SDS011;6251;51.762;8.660;2023-04-29T19:41:56;8.98;;;6.75;;
12373;SDS011;6251;51.762;8.660;2023-04-29T19:51:57;7.20;;;6.50;;
12373;SDS011;6251;51.762;8.660;2023-04-29T20:01:57;8.00;;;7.20;;
12373;SDS011;6251;51.762;8.660;2023-04-29T20:11:58;7.95;;;7.15;;
12373;SDS011;6251;51.762;8.660;2023-04-29T20:21:59;7.95;;;7.15;;
12373;SDS011;6251;51.762;8.660;2023-04-29T20:32:00;9.57;;;8.20;;
12373;SDS011;6251;51.762;8.660;2023-04-29T20:42:01;10.82;;;9.25;;
12373;SDS011;6251;51.762;8.660;2023-04-29T20:52:02;14.57;;;9.88;;
12373;SDS011;6251;51.762;8.660;2023-04-29T23:05:31;6.62;;;5.87;;
